sensor_id;sensor_type;location;lat;lon;timestamp;temperature;humidity
26107;DHT22;13866;50.748;12.630;2023-03-01T00:00:19;-5.80;99.90
26107;DHT22;13866;50.748;12.630;2023-03-01T00:02:44;-5.80;99.90
26107;DHT22;13866;50.748;12.630;2023-03-01T00:05:09;-5.80;99.90
26107;DHT22;13866;50.748;12.630;2023-03-01T00:07:35;-5.80;99.90
26107;DHT22;13866;50.748;12.630;2023-03-01T00:10:00;-5.80;99.90
26107;DHT22;13866;50.748;12.630;2023-03-01T00:12:26;-5.80;99.90
26107;DHT22;13866;50.748;12.630;2023-03-01T00:14:52;-5.90;99.90
26107;DHT22;13866;50.748;12.630;2023-03-01T00:17:18;-5.90;99.90
26107;DHT22;13866;50.748;12.630;2023-03-01T00:19:43;-5.80;99.90
26107;DHT22;13866;50.748;12.630;2023-03-01T00:22:09;-5.90;99.90
26107;DHT22;13866;50.748;12.630;2023-03-01T00:24:34;-5.90;99.90
26107;DHT22;13866;50.748;12.630;2023-03-01T00:27:00;-5.90;99.90
26107;DHT22;13866;50.748;12.630;2023-03-01T00:29:25;-5.90;99.90
26107;DHT22;13866;50.748;12.630;2023-03-01T00:31:51;-6.00;99.90
26107;DHT22;13866;50.748;12.630;2023-03-01T00:34:17;-5.90;99.90
26107;DHT22;13866;50.748;12.630;2023-03-01T00:36:42;-6.00;99.90
26107;DHT22;13866;50.748;12.630;2023-03-01T00:39:12;-6.10;99.90
26107;DHT22;13866;50.748;12.630;2023-03-01T00:41:38;-6.10;99.90
26107;DHT22;13866;50.748;12.630;2023-03-01T00:44:05;-6.10;99.90
26107;DHT22;13866;50.748;12.630;2023-03-01T00:46:31;-6.20;99.90
26107;DHT22;13866;50.748;12.630;2023-03-01T00:48:56;-6.20;99.90
26107;DHT22;13866;50.748;12.630;2023-03-01T00:51:25;-6.10;99.90
26107;DHT22;13866;50.748;12.630;2023-03-01T00:53:52;-6.10;99.90
26107;DHT22;13866;50.748;12.630;2023-03-01T00:56:18;-6.10;99.90
26107;DHT22;13866;50.748;12.630;2023-03-01T00:58:44;-6.20;99.90
26107;DHT22;13866;50.748;12.630;2023-03-01T01:01:13;-6.30;99.90
26107;DHT22;13866;50.748;12.630;2023-03-01T01:03:52;-6.30;99.90
26107;DHT22;13866;50.748;12.630;2023-03-01T01:06:21;-6.30;99.90
26107;DHT22;13866;50.748;12.630;2023-03-01T01:08:47;-6.20;99.90
26107;DHT22;13866;50.748;12.630;2023-03-01T01:11:13;-6.20;99.90
26107;DHT22;13866;50.748;12.630;2023-03-01T01:13:39;-6.20;99.90
26107;DHT22;13866;50.748;12.630;2023-03-01T01:16:05;-6.10;99.90
26107;DHT22;13866;50.748;12.630;2023-03-01T01:18:31;-6.20;99.90
26107;DHT22;13866;50.748;12.630;2023-03-01T01:20:57;-6.20;99.90
26107;DHT22;13866;50.748;12.630;2023-03-01T01:23:22;-6.30;99.90
26107;DHT22;13866;50.748;12.630;2023-03-01T01:25:48;-6.30;99.90
26107;DHT22;13866;50.748;12.630;2023-03-01T01:28:13;-6.40;99.90
26107;DHT22;13866;50.748;12.630;2023-03-01T01:30:39;-6.40;99.90
26107;DHT22;13866;50.748;12.630;2023-03-01T01:33:04;-6.30;99.90
26107;DHT22;13866;50.748;12.630;2023-03-01T01:35:30;-6.40;99.90
26107;DHT22;13866;50.748;12.630;2023-03-01T01:37:55;-6.40;99.90
26107;DHT22;13866;50.748;12.630;2023-03-01T01:40:21;-6.40;99.90
26107;DHT22;13866;50.748;12.630;2023-03-01T01:42:46;-6.50;99.90
26107;DHT22;13866;50.748;12.630;2023-03-01T01:45:33;-6.60;99.90
26107;DHT22;13866;50.748;12.630;2023-03-01T01:48:11;-6.60;99.90
26107;DHT22;13866;50.748;12.630;2023-03-01T01:50:40;-6.60;99.90
26107;DHT22;13866;50.748;12.630;2023-03-01T01:53:12;-6.50;99.90
26107;DHT22;13866;50.748;12.630;2023-03-01T01:55:45;-6.60;99.90
26107;DHT22;13866;50.748;12.630;2023-03-01T01:58:15;-6.60;99.90
26107;DHT22;13866;50.748;12.630;2023-03-01T02:00:42;-6.60;99.90
26107;DHT22;13866;50.748;12.630;2023-03-01T02:03:12;-6.60;99.90
26107;DHT22;13866;50.748;12.630;2023-03-01T02:08:19;-6.70;99.90
26107;DHT22;13866;50.748;12.630;2023-03-01T02:10:45;-6.80;99.90
26107;DHT22;13866;50.748;12.630;2023-03-01T02:13:11;-6.70;99.90
26107;DHT22;13866;50.748;12.630;2023-03-01T02:15:39;-6.80;99.90
26107;DHT22;13866;50.748;12.630;2023-03-01T02:18:07;-6.90;99.90
26107;DHT22;13866;50.748;12.630;2023-03-01T02:20:48;-6.80;99.90
26107;DHT22;13866;50.748;12.630;2023-03-01T02:23:16;-6.80;99.90
26107;DHT22;13866;50.748;12.630;2023-03-01T02:25:55;-6.80;99.90
26107;DHT22;13866;50.748;12.630;2023-03-01T02:30:50;-6.80;99.90
26107;DHT22;13866;50.748;12.630;2023-03-01T02:33:36;-6.80;99.90
26107;DHT22;13866;50.748;12.630;2023-03-01T02:36:09;-6.90;99.90
26107;DHT22;13866;50.748;12.630;2023-03-01T02:38:36;-7.00;99.90
26107;DHT22;13866;50.748;12.630;2023-03-01T02:41:03;-7.10;99.90
26107;DHT22;13866;50.748;12.630;2023-03-01T02:43:31;-7.20;99.90
26107;DHT22;13866;50.748;12.630;2023-03-01T02:46:02;-7.20;99.90
26107;DHT22;13866;50.748;12.630;2023-03-01T02:48:51;-7.20;99.90
26107;DHT22;13866;50.748;12.630;2023-03-01T02:54:12;-7.30;99.90
26107;DHT22;13866;50.748;12.630;2023-03-01T02:56:40;-7.30;99.90
26107;DHT22;13866;50.748;12.630;2023-03-01T02:59:06;-7.30;99.90
26107;DHT22;13866;50.748;12.630;2023-03-01T03:01:32;-7.30;99.90
26107;DHT22;13866;50.748;12.630;2023-03-01T03:04:10;-7.30;99.90
26107;DHT22;13866;50.748;12.630;2023-03-01T03:06:36;-7.20;99.90
26107;DHT22;13866;50.748;12.630;2023-03-01T03:09:02;-7.30;99.90
26107;DHT22;13866;50.748;12.630;2023-03-01T03:11:27;-7.20;99.90
26107;DHT22;13866;50.748;12.630;2023-03-01T03:13:53;-7.20;99.90
26107;DHT22;13866;50.748;12.630;2023-03-01T03:16:19;-7.40;99.90
26107;DHT22;13866;50.748;12.630;2023-03-01T03:18:46;-7.40;99.90
26107;DHT22;13866;50.748;12.630;2023-03-01T03:21:12;-7.40;99.90
26107;DHT22;13866;50.748;12.630;2023-03-01T03:23:38;-7.40;99.90
26107;DHT22;13866;50.748;12.630;2023-03-01T03:26:04;-7.40;99.90
26107;DHT22;13866;50.748;12.630;2023-03-01T03:28:34;-7.30;99.90
26107;DHT22;13866;50.748;12.630;2023-03-01T03:31:01;-7.10;99.90
26107;DHT22;13866;50.748;12.630;2023-03-01T03:33:30;-7.10;99.90
26107;DHT22;13866;50.748;12.630;2023-03-01T03:35:56;-7.20;99.90
26107;DHT22;13866;50.748;12.630;2023-03-01T03:38:22;-7.30;99.90
26107;DHT22;13866;50.748;12.630;2023-03-01T03:40:50;-7.40;99.90
26107;DHT22;13866;50.748;12.630;2023-03-01T03:43:20;-7.50;99.90
26107;DHT22;13866;50.748;12.630;2023-03-01T03:45:48;-7.50;99.90
26107;DHT22;13866;50.748;12.630;2023-03-01T03:48:14;-7.60;99.90
26107;DHT22;13866;50.748;12.630;2023-03-01T03:50:41;-7.50;99.90
26107;DHT22;13866;50.748;12.630;2023-03-01T03:53:09;-7.50;99.90
26107;DHT22;13866;50.748;12.630;2023-03-01T03:55:35;-7.40;99.90
26107;DHT22;13866;50.748;12.630;2023-03-01T03:58:05;-7.30;99.90
26107;DHT22;13866;50.748;12.630;2023-03-01T04:00:39;-7.50;99.90
26107;DHT22;13866;50.748;12.630;2023-03-01T04:03:05;-7.50;99.90
26107;DHT22;13866;50.748;12.630;2023-03-01T04:05:31;-7.60;99.90
26107;DHT22;13866;50.748;12.630;2023-03-01T04:07:57;-7.60;99.90
26107;DHT22;13866;50.748;12.630;2023-03-01T04:10:30;-7.60;99.90
26107;DHT22;13866;50.748;12.630;2023-03-01T04:12:56;-7.60;99.90
26107;DHT22;13866;50.748;12.630;2023-03-01T04:15:23;-7.50;99.90
26107;DHT22;13866;50.748;12.630;2023-03-01T04:17:51;-7.50;99.90
26107;DHT22;13866;50.748;12.630;2023-03-01T04:20:19;-7.60;99.90
26107;DHT22;13866;50.748;12.630;2023-03-01T04:22:53;-7.80;99.90
26107;DHT22;13866;50.748;12.630;2023-03-01T04:25:22;-7.80;99.90
26107;DHT22;13866;50.748;12.630;2023-03-01T04:27:48;-7.90;99.90
26107;DHT22;13866;50.748;12.630;2023-03-01T04:30:13;-8.00;99.90
26107;DHT22;13866;50.748;12.630;2023-03-01T04:32:39;-7.90;99.90
26107;DHT22;13866;50.748;12.630;2023-03-01T04:35:04;-8.00;99.90
26107;DHT22;13866;50.748;12.630;2023-03-01T04:37:30;-8.10;99.90
26107;DHT22;13866;50.748;12.630;2023-03-01T04:39:55;-8.10;99.90
26107;DHT22;13866;50.748;12.630;2023-03-01T04:42:21;-8.10;99.90
26107;DHT22;13866;50.748;12.630;2023-03-01T04:44:46;-8.00;99.90
26107;DHT22;13866;50.748;12.630;2023-03-01T04:47:12;-7.80;99.90
26107;DHT22;13866;50.748;12.630;2023-03-01T04:49:38;-7.70;99.90
26107;DHT22;13866;50.748;12.630;2023-03-01T04:52:04;-7.80;99.90
26107;DHT22;13866;50.748;12.630;2023-03-01T04:54:30;-7.80;99.90
26107;DHT22;13866;50.748;12.630;2023-03-01T04:56:57;-7.80;99.90
26107;DHT22;13866;50.748;12.630;2023-03-01T04:59:22;-7.70;99.90
26107;DHT22;13866;50.748;12.630;2023-03-01T05:01:49;-7.80;99.90
26107;DHT22;13866;50.748;12.630;2023-03-01T05:04:14;-8.00;99.90
26107;DHT22;13866;50.748;12.630;2023-03-01T05:06:40;-8.10;99.90
26107;DHT22;13866;50.748;12.630;2023-03-01T05:09:05;-8.10;99.90
26107;DHT22;13866;50.748;12.630;2023-03-01T05:11:31;-8.10;99.90
26107;DHT22;13866;50.748;12.630;2023-03-01T05:14:01;-7.90;99.90
26107;DHT22;13866;50.748;12.630;2023-03-01T05:16:27;-7.90;99.90
26107;DHT22;13866;50.748;12.630;2023-03-01T05:18:52;-8.00;99.90
26107;DHT22;13866;50.748;12.630;2023-03-01T05:21:18;-8.00;99.90
26107;DHT22;13866;50.748;12.630;2023-03-01T05:23:43;-7.90;99.90
26107;DHT22;13866;50.748;12.630;2023-03-01T05:26:09;-7.90;99.90
26107;DHT22;13866;50.748;12.630;2023-03-01T05:28:35;-8.00;99.90
26107;DHT22;13866;50.748;12.630;2023-03-01T05:31:00;-8.00;99.90
26107;DHT22;13866;50.748;12.630;2023-03-01T05:33:27;-8.00;99.90
26107;DHT22;13866;50.748;12.630;2023-03-01T05:35:53;-8.00;99.90
26107;DHT22;13866;50.748;12.630;2023-03-01T05:38:20;-8.20;99.90
26107;DHT22;13866;50.748;12.630;2023-03-01T05:40:47;-8.20;99.90
26107;DHT22;13866;50.748;12.630;2023-03-01T05:43:14;-8.20;99.90
26107;DHT22;13866;50.748;12.630;2023-03-01T05:45:41;-8.20;99.90
26107;DHT22;13866;50.748;12.630;2023-03-01T05:48:07;-8.10;99.90
26107;DHT22;13866;50.748;12.630;2023-03-01T05:50:35;-8.10;99.90
26107;DHT22;13866;50.748;12.630;2023-03-01T05:53:12;-8.10;99.90
26107;DHT22;13866;50.748;12.630;2023-03-01T05:55:39;-8.00;99.90
26107;DHT22;13866;50.748;12.630;2023-03-01T05:58:07;-8.10;99.90
26107;DHT22;13866;50.748;12.630;2023-03-01T06:00:34;-8.10;99.90
26107;DHT22;13866;50.748;12.630;2023-03-01T06:03:00;-8.10;99.90
26107;DHT22;13866;50.748;12.630;2023-03-01T06:05:27;-8.10;99.90
26107;DHT22;13866;50.748;12.630;2023-03-01T06:07:53;-8.10;99.90
26107;DHT22;13866;50.748;12.630;2023-03-01T06:10:20;-8.00;99.90
26107;DHT22;13866;50.748;12.630;2023-03-01T06:12:46;-8.00;99.90
26107;DHT22;13866;50.748;12.630;2023-03-01T06:15:13;-8.00;99.90
26107;DHT22;13866;50.748;12.630;2023-03-01T06:17:40;-8.20;99.90
26107;DHT22;13866;50.748;12.630;2023-03-01T06:20:12;-8.10;99.90
26107;DHT22;13866;50.748;12.630;2023-03-01T06:22:38;-8.00;99.90
26107;DHT22;13866;50.748;12.630;2023-03-01T06:25:05;-8.10;99.90
26107;DHT22;13866;50.748;12.630;2023-03-01T06:27:31;-8.10;99.90
26107;DHT22;13866;50.748;12.630;2023-03-01T06:29:56;-7.90;99.90
26107;DHT22;13866;50.748;12.630;2023-03-01T06:32:22;-8.00;99.90
26107;DHT22;13866;50.748;12.630;2023-03-01T06:34:48;-7.90;99.90
26107;DHT22;13866;50.748;12.630;2023-03-01T06:37:13;-7.90;99.90
26107;DHT22;13866;50.748;12.630;2023-03-01T06:39:39;-7.80;99.90
26107;DHT22;13866;50.748;12.630;2023-03-01T06:42:04;-7.60;99.90
26107;DHT22;13866;50.748;12.630;2023-03-01T06:44:30;-7.50;99.90
26107;DHT22;13866;50.748;12.630;2023-03-01T06:46:55;-7.50;99.90
26107;DHT22;13866;50.748;12.630;2023-03-01T06:49:21;-7.30;99.90
26107;DHT22;13866;50.748;12.630;2023-03-01T06:51:46;-7.20;99.90
26107;DHT22;13866;50.748;12.630;2023-03-01T06:54:12;-7.00;99.90
26107;DHT22;13866;50.748;12.630;2023-03-01T06:56:38;-6.70;99.90
26107;DHT22;13866;50.748;12.630;2023-03-01T06:59:04;-6.50;99.90
26107;DHT22;13866;50.748;12.630;2023-03-01T07:01:30;-6.20;99.90
26107;DHT22;13866;50.748;12.630;2023-03-01T07:03:56;-5.90;99.90
26107;DHT22;13866;50.748;12.630;2023-03-01T07:06:22;-5.80;99.90
26107;DHT22;13866;50.748;12.630;2023-03-01T07:08:48;-5.70;99.90
26107;DHT22;13866;50.748;12.630;2023-03-01T07:11:13;-5.60;99.90
26107;DHT22;13866;50.748;12.630;2023-03-01T07:13:39;-5.60;99.90
26107;DHT22;13866;50.748;12.630;2023-03-01T07:16:04;-5.50;99.90
26107;DHT22;13866;50.748;12.630;2023-03-01T07:18:30;-5.30;99.90
26107;DHT22;13866;50.748;12.630;2023-03-01T07:20:56;-5.10;99.90
26107;DHT22;13866;50.748;12.630;2023-03-01T07:23:21;-4.90;99.90
26107;DHT22;13866;50.748;12.630;2023-03-01T07:25:54;-4.70;99.90
26107;DHT22;13866;50.748;12.630;2023-03-01T07:28:20;-4.70;99.90
26107;DHT22;13866;50.748;12.630;2023-03-01T07:30:47;-4.70;99.90
26107;DHT22;13866;50.748;12.630;2023-03-01T07:33:12;-4.60;99.90
26107;DHT22;13866;50.748;12.630;2023-03-01T07:35:38;-4.60;99.90
26107;DHT22;13866;50.748;12.630;2023-03-01T07:38:03;-4.50;99.90
26107;DHT22;13866;50.748;12.630;2023-03-01T07:40:29;-4.40;99.90
26107;DHT22;13866;50.748;12.630;2023-03-01T07:42:56;-4.40;99.90
26107;DHT22;13866;50.748;12.630;2023-03-01T07:45:23;-4.20;99.90
26107;DHT22;13866;50.748;12.630;2023-03-01T07:47:51;-4.10;99.90
26107;DHT22;13866;50.748;12.630;2023-03-01T07:50:17;-4.10;99.90
26107;DHT22;13866;50.748;12.630;2023-03-01T07:52:45;-4.10;99.90
26107;DHT22;13866;50.748;12.630;2023-03-01T07:55:11;-4.00;99.90
26107;DHT22;13866;50.748;12.630;2023-03-01T07:57:37;-4.00;99.90
26107;DHT22;13866;50.748;12.630;2023-03-01T08:00:03;-3.90;99.90
26107;DHT22;13866;50.748;12.630;2023-03-01T08:02:29;-3.70;99.90
26107;DHT22;13866;50.748;12.630;2023-03-01T08:04:55;-3.70;99.90
26107;DHT22;13866;50.748;12.630;2023-03-01T08:07:20;-3.50;99.90
26107;DHT22;13866;50.748;12.630;2023-03-01T08:09:46;-3.30;99.90
26107;DHT22;13866;50.748;12.630;2023-03-01T08:12:11;-3.10;99.90
26107;DHT22;13866;50.748;12.630;2023-03-01T08:14:37;-2.80;99.90
26107;DHT22;13866;50.748;12.630;2023-03-01T08:17:02;-2.80;99.90
26107;DHT22;13866;50.748;12.630;2023-03-01T08:19:28;-2.10;99.90
26107;DHT22;13866;50.748;12.630;2023-03-01T08:21:54;-1.80;99.90
26107;DHT22;13866;50.748;12.630;2023-03-01T08:24:23;-1.70;99.90
26107;DHT22;13866;50.748;12.630;2023-03-01T08:26:49;-1.60;99.90
26107;DHT22;13866;50.748;12.630;2023-03-01T08:29:15;-1.50;99.90
26107;DHT22;13866;50.748;12.630;2023-03-01T08:31:40;-1.50;99.90
26107;DHT22;13866;50.748;12.630;2023-03-01T08:34:09;-1.50;99.90
26107;DHT22;13866;50.748;12.630;2023-03-01T08:36:37;-1.10;99.90
26107;DHT22;13866;50.748;12.630;2023-03-01T08:39:04;-0.70;99.90
26107;DHT22;13866;50.748;12.630;2023-03-01T08:41:30;-0.70;99.90
26107;DHT22;13866;50.748;12.630;2023-03-01T08:43:56;-0.60;99.90
26107;DHT22;13866;50.748;12.630;2023-03-01T08:46:27;0.00;99.90
26107;DHT22;13866;50.748;12.630;2023-03-01T08:48:53;0.50;99.90
26107;DHT22;13866;50.748;12.630;2023-03-01T08:51:19;0.70;99.90
26107;DHT22;13866;50.748;12.630;2023-03-01T08:53:45;0.90;99.90
26107;DHT22;13866;50.748;12.630;2023-03-01T08:56:12;1.00;99.90
26107;DHT22;13866;50.748;12.630;2023-03-01T08:58:38;0.80;99.90
26107;DHT22;13866;50.748;12.630;2023-03-01T09:01:09;0.70;99.90
26107;DHT22;13866;50.748;12.630;2023-03-01T09:03:35;0.90;99.90
26107;DHT22;13866;50.748;12.630;2023-03-01T09:06:01;1.20;99.90
26107;DHT22;13866;50.748;12.630;2023-03-01T09:08:27;1.50;99.90
26107;DHT22;13866;50.748;12.630;2023-03-01T09:10:53;1.40;99.90
26107;DHT22;13866;50.748;12.630;2023-03-01T09:13:18;1.50;99.90
26107;DHT22;13866;50.748;12.630;2023-03-01T09:15:44;0.90;99.90
26107;DHT22;13866;50.748;12.630;2023-03-01T09:18:09;1.30;99.90
26107;DHT22;13866;50.748;12.630;2023-03-01T09:20:35;1.60;99.90
26107;DHT22;13866;50.748;12.630;2023-03-01T09:23:00;1.90;99.90
26107;DHT22;13866;50.748;12.630;2023-03-01T09:25:26;1.80;99.90
26107;DHT22;13866;50.748;12.630;2023-03-01T09:27:52;1.70;99.90
26107;DHT22;13866;50.748;12.630;2023-03-01T09:30:18;1.80;99.90
26107;DHT22;13866;50.748;12.630;2023-03-01T09:32:44;1.80;99.90
26107;DHT22;13866;50.748;12.630;2023-03-01T09:35:10;1.70;99.90
26107;DHT22;13866;50.748;12.630;2023-03-01T09:37:36;2.00;99.90
26107;DHT22;13866;50.748;12.630;2023-03-01T09:40:14;2.20;99.90
26107;DHT22;13866;50.748;12.630;2023-03-01T09:42:59;2.50;99.90
26107;DHT22;13866;50.748;12.630;2023-03-01T09:45:38;2.30;99.90
26107;DHT22;13866;50.748;12.630;2023-03-01T09:48:07;2.40;99.90
26107;DHT22;13866;50.748;12.630;2023-03-01T09:50:39;2.80;99.90
26107;DHT22;13866;50.748;12.630;2023-03-01T09:53:17;3.20;99.90
26107;DHT22;13866;50.748;12.630;2023-03-01T09:55:52;3.60;99.90
26107;DHT22;13866;50.748;12.630;2023-03-01T09:58:32;4.10;99.90
26107;DHT22;13866;50.748;12.630;2023-03-01T10:01:27;4.30;99.90
26107;DHT22;13866;50.748;12.630;2023-03-01T10:04:10;4.40;99.90
26107;DHT22;13866;50.748;12.630;2023-03-01T10:06:38;4.00;99.90
26107;DHT22;13866;50.748;12.630;2023-03-01T10:09:12;3.90;99.90
26107;DHT22;13866;50.748;12.630;2023-03-01T10:11:42;4.10;99.90
26107;DHT22;13866;50.748;12.630;2023-03-01T10:14:35;3.50;99.90
26107;DHT22;13866;50.748;12.630;2023-03-01T10:19:49;3.20;99.90
26107;DHT22;13866;50.748;12.630;2023-03-01T10:22:24;3.50;99.90
26107;DHT22;13866;50.748;12.630;2023-03-01T10:24:54;3.80;99.90
26107;DHT22;13866;50.748;12.630;2023-03-01T10:27:34;4.30;99.90
26107;DHT22;13866;50.748;12.630;2023-03-01T10:30:16;4.10;99.90
26107;DHT22;13866;50.748;12.630;2023-03-01T10:32:45;4.40;99.90
26107;DHT22;13866;50.748;12.630;2023-03-01T10:35:18;4.50;99.90
26107;DHT22;13866;50.748;12.630;2023-03-01T10:38:04;4.60;99.90
26107;DHT22;13866;50.748;12.630;2023-03-01T10:40:32;4.40;99.90
26107;DHT22;13866;50.748;12.630;2023-03-01T10:43:03;4.10;99.90
26107;DHT22;13866;50.748;12.630;2023-03-01T10:45:33;3.90;99.90
26107;DHT22;13866;50.748;12.630;2023-03-01T10:48:04;4.20;99.90
26107;DHT22;13866;50.748;12.630;2023-03-01T10:50:30;4.20;99.90
26107;DHT22;13866;50.748;12.630;2023-03-01T10:53:02;4.40;99.90
26107;DHT22;13866;50.748;12.630;2023-03-01T10:55:35;4.40;99.90
26107;DHT22;13866;50.748;12.630;2023-03-01T10:58:18;4.60;99.90
26107;DHT22;13866;50.748;12.630;2023-03-01T11:03:43;4.70;99.90
26107;DHT22;13866;50.748;12.630;2023-03-01T11:06:21;4.70;99.90
26107;DHT22;13866;50.748;12.630;2023-03-01T11:08:49;5.10;99.90
26107;DHT22;13866;50.748;12.630;2023-03-01T11:11:34;5.30;99.90
26107;DHT22;13866;50.748;12.630;2023-03-01T11:14:05;5.50;99.90
26107;DHT22;13866;50.748;12.630;2023-03-01T11:21:28;5.40;99.90
26107;DHT22;13866;50.748;12.630;2023-03-01T11:24:00;5.70;99.90
26107;DHT22;13866;50.748;12.630;2023-03-01T11:26:28;5.40;99.90
26107;DHT22;13866;50.748;12.630;2023-03-01T11:28:59;4.90;99.90
26107;DHT22;13866;50.748;12.630;2023-03-01T11:31:28;5.40;99.90
26107;DHT22;13866;50.748;12.630;2023-03-01T11:34:11;5.60;99.90
26107;DHT22;13866;50.748;12.630;2023-03-01T11:36:49;5.30;99.90
26107;DHT22;13866;50.748;12.630;2023-03-01T11:39:28;5.50;99.90
26107;DHT22;13866;50.748;12.630;2023-03-01T11:42:15;5.40;99.90
26107;DHT22;13866;50.748;12.630;2023-03-01T11:44:43;5.80;99.90
26107;DHT22;13866;50.748;12.630;2023-03-01T11:56:29;4.90;99.90
26107;DHT22;13866;50.748;12.630;2023-03-01T12:07:32;5.30;99.90
26107;DHT22;13866;50.748;12.630;2023-03-01T12:10:32;5.40;99.90
26107;DHT22;13866;50.748;12.630;2023-03-01T12:16:20;5.80;99.90
26107;DHT22;13866;50.748;12.630;2023-03-01T12:27:25;5.60;99.90
26107;DHT22;13866;50.748;12.630;2023-03-01T12:30:04;5.30;99.90
26107;DHT22;13866;50.748;12.630;2023-03-01T12:32:52;5.30;99.90
26107;DHT22;13866;50.748;12.630;2023-03-01T12:35:41;5.70;99.90
26107;DHT22;13866;50.748;12.630;2023-03-01T12:44:01;4.60;99.90
26107;DHT22;13866;50.748;12.630;2023-03-01T12:49:16;4.70;99.90
26107;DHT22;13866;50.748;12.630;2023-03-01T12:51:57;4.70;99.90
26107;DHT22;13866;50.748;12.630;2023-03-01T12:54:29;4.60;99.90
26107;DHT22;13866;50.748;12.630;2023-03-01T12:56:56;4.80;99.90
26107;DHT22;13866;50.748;12.630;2023-03-01T12:59:37;5.20;99.90
26107;DHT22;13866;50.748;12.630;2023-03-01T13:02:54;5.60;99.90
26107;DHT22;13866;50.748;12.630;2023-03-01T13:05:34;5.80;99.90
26107;DHT22;13866;50.748;12.630;2023-03-01T13:08:49;5.80;99.90
26107;DHT22;13866;50.748;12.630;2023-03-01T13:11:23;5.50;99.90
26107;DHT22;13866;50.748;12.630;2023-03-01T13:13:49;5.50;99.90
26107;DHT22;13866;50.748;12.630;2023-03-01T13:19:10;5.50;99.90
26107;DHT22;13866;50.748;12.630;2023-03-01T13:21:38;5.60;99.90
26107;DHT22;13866;50.748;12.630;2023-03-01T13:24:03;5.60;99.90
26107;DHT22;13866;50.748;12.630;2023-03-01T13:26:29;5.60;99.90
26107;DHT22;13866;50.748;12.630;2023-03-01T13:28:58;5.10;99.90
26107;DHT22;13866;50.748;12.630;2023-03-01T13:34:01;4.90;99.90
26107;DHT22;13866;50.748;12.630;2023-03-01T13:47:16;4.40;99.90
26107;DHT22;13866;50.748;12.630;2023-03-01T13:49:49;4.60;99.90
26107;DHT22;13866;50.748;12.630;2023-03-01T13:52:36;4.40;99.90
26107;DHT22;13866;50.748;12.630;2023-03-01T13:55:05;4.40;99.90
26107;DHT22;13866;50.748;12.630;2023-03-01T13:57:36;4.00;99.90
26107;DHT22;13866;50.748;12.630;2023-03-01T14:00:05;4.00;99.90
26107;DHT22;13866;50.748;12.630;2023-03-01T14:02:31;3.90;99.90
26107;DHT22;13866;50.748;12.630;2023-03-01T14:05:00;4.10;99.90
26107;DHT22;13866;50.748;12.630;2023-03-01T14:07:27;4.20;99.90
26107;DHT22;13866;50.748;12.630;2023-03-01T14:10:00;4.20;99.90
26107;DHT22;13866;50.748;12.630;2023-03-01T14:12:52;4.30;99.90
26107;DHT22;13866;50.748;12.630;2023-03-01T14:15:29;3.90;99.90
26107;DHT22;13866;50.748;12.630;2023-03-01T14:18:13;3.80;99.90
26107;DHT22;13866;50.748;12.630;2023-03-01T14:20:44;3.80;99.90
26107;DHT22;13866;50.748;12.630;2023-03-01T14:23:22;3.70;99.90
26107;DHT22;13866;50.748;12.630;2023-03-01T14:25:54;3.80;99.90
26107;DHT22;13866;50.748;12.630;2023-03-01T14:28:31;3.80;99.90
26107;DHT22;13866;50.748;12.630;2023-03-01T14:31:03;3.70;99.90
26107;DHT22;13866;50.748;12.630;2023-03-01T14:33:29;3.70;99.90
26107;DHT22;13866;50.748;12.630;2023-03-01T14:36:04;3.70;99.90
26107;DHT22;13866;50.748;12.630;2023-03-01T14:38:35;3.60;99.90
26107;DHT22;13866;50.748;12.630;2023-03-01T14:41:05;3.40;99.90
26107;DHT22;13866;50.748;12.630;2023-03-01T14:43:31;3.40;99.90
26107;DHT22;13866;50.748;12.630;2023-03-01T14:45:57;3.30;99.90
26107;DHT22;13866;50.748;12.630;2023-03-01T14:48:23;3.20;99.90
26107;DHT22;13866;50.748;12.630;2023-03-01T14:50:49;3.20;99.90
26107;DHT22;13866;50.748;12.630;2023-03-01T14:53:25;3.30;99.90
26107;DHT22;13866;50.748;12.630;2023-03-01T14:55:54;3.40;99.90
26107;DHT22;13866;50.748;12.630;2023-03-01T14:58:22;3.30;99.90
26107;DHT22;13866;50.748;12.630;2023-03-01T15:00:59;3.40;99.90
26107;DHT22;13866;50.748;12.630;2023-03-01T15:03:38;3.40;99.90
26107;DHT22;13866;50.748;12.630;2023-03-01T15:06:06;3.40;99.90
26107;DHT22;13866;50.748;12.630;2023-03-01T15:08:33;3.40;99.90
26107;DHT22;13866;50.748;12.630;2023-03-01T15:11:15;3.30;99.90
26107;DHT22;13866;50.748;12.630;2023-03-01T15:13:42;3.40;99.90
26107;DHT22;13866;50.748;12.630;2023-03-01T15:16:11;3.40;99.90
26107;DHT22;13866;50.748;12.630;2023-03-01T15:18:43;3.30;99.90
26107;DHT22;13866;50.748;12.630;2023-03-01T15:21:22;3.30;99.90
26107;DHT22;13866;50.748;12.630;2023-03-01T15:23:50;3.20;99.90
26107;DHT22;13866;50.748;12.630;2023-03-01T15:26:41;3.20;99.90
26107;DHT22;13866;50.748;12.630;2023-03-01T15:29:18;3.30;99.90
26107;DHT22;13866;50.748;12.630;2023-03-01T15:31:57;3.20;99.90
26107;DHT22;13866;50.748;12.630;2023-03-01T15:34:26;3.20;99.90
26107;DHT22;13866;50.748;12.630;2023-03-01T15:36:54;3.20;99.90
26107;DHT22;13866;50.748;12.630;2023-03-01T15:39:39;3.20;99.90
26107;DHT22;13866;50.748;12.630;2023-03-01T15:45:08;3.30;99.90
26107;DHT22;13866;50.748;12.630;2023-03-01T15:47:34;3.20;99.90
26107;DHT22;13866;50.748;12.630;2023-03-01T15:50:01;3.10;99.90
26107;DHT22;13866;50.748;12.630;2023-03-01T15:52:45;3.00;99.90
26107;DHT22;13866;50.748;12.630;2023-03-01T15:55:31;3.00;99.90
26107;DHT22;13866;50.748;12.630;2023-03-01T15:58:16;2.90;99.90
26107;DHT22;13866;50.748;12.630;2023-03-01T16:00:43;3.00;99.90
26107;DHT22;13866;50.748;12.630;2023-03-01T16:03:10;3.00;99.90
26107;DHT22;13866;50.748;12.630;2023-03-01T16:05:37;3.00;99.90
26107;DHT22;13866;50.748;12.630;2023-03-01T16:08:04;2.80;99.90
26107;DHT22;13866;50.748;12.630;2023-03-01T16:10:31;2.80;99.90
26107;DHT22;13866;50.748;12.630;2023-03-01T16:12:57;2.80;99.90
26107;DHT22;13866;50.748;12.630;2023-03-01T16:15:32;2.90;99.90
26107;DHT22;13866;50.748;12.630;2023-03-01T16:17:59;2.80;99.90
26107;DHT22;13866;50.748;12.630;2023-03-01T16:20:25;2.80;99.90
26107;DHT22;13866;50.748;12.630;2023-03-01T16:22:51;2.60;99.90
26107;DHT22;13866;50.748;12.630;2023-03-01T16:25:19;2.60;99.90
26107;DHT22;13866;50.748;12.630;2023-03-01T16:27:46;2.60;99.90
26107;DHT22;13866;50.748;12.630;2023-03-01T16:30:13;2.40;99.90
26107;DHT22;13866;50.748;12.630;2023-03-01T16:32:40;2.40;99.90
26107;DHT22;13866;50.748;12.630;2023-03-01T16:35:07;2.40;99.90
26107;DHT22;13866;50.748;12.630;2023-03-01T16:37:35;2.40;99.90
26107;DHT22;13866;50.748;12.630;2023-03-01T16:40:00;2.30;99.90
26107;DHT22;13866;50.748;12.630;2023-03-01T16:42:27;2.20;99.90
26107;DHT22;13866;50.748;12.630;2023-03-01T16:44:56;2.20;99.90
26107;DHT22;13866;50.748;12.630;2023-03-01T16:47:21;2.20;99.90
26107;DHT22;13866;50.748;12.630;2023-03-01T16:49:47;2.10;99.90
26107;DHT22;13866;50.748;12.630;2023-03-01T16:52:12;1.90;99.90